createdAt,value
2017-11-15T00:00:05.969Z,99.10
2017-11-15T00:02:33.957Z,99.10
2017-11-15T00:05:03.167Z,99.20
2017-11-15T00:07:31.410Z,99.50
2017-11-15T00:09:59.674Z,99.10
2017-11-15T00:12:28.674Z,99.20
2017-11-15T00:14:57.718Z,99.40
2017-11-15T00:17:26.493Z,99.30
2017-11-15T00:19:55.514Z,99.40
2017-11-15T00:22:35.762Z,99.20
2017-11-15T00:25:04.010Z,99.20
2017-11-15T00:27:32.254Z,99.10
2017-11-15T00:30:01.285Z,99.20
2017-11-15T00:32:29.522Z,99.20
2017-11-15T00:34:58.562Z,99.40
2017-11-15T00:37:26.805Z,99.40
2017-11-15T00:39:55.066Z,99.40
2017-11-15T00:42:24.078Z,99.20
2017-11-15T00:44:52.341Z,99.20
2017-11-15T00:47:21.350Z,99.20
2017-11-15T00:49:49.606Z,99.20
2017-11-15T00:52:18.629Z,99.20
2017-11-15T00:54:46.894Z,99.20
2017-11-15T00:57:15.130Z,99.10
2017-11-15T00:59:43.374Z,99.00
2017-11-15T01:02:11.634Z,99.00
2017-11-15T01:04:39.879Z,99.20
2017-11-15T01:07:08.902Z,99.00
2017-11-15T01:09:37.148Z,99.00
2017-11-15T01:12:06.161Z,98.90
2017-11-15T01:14:34.979Z,98.90
2017-11-15T01:17:03.285Z,98.90
2017-11-15T01:19:32.146Z,98.90
2017-11-15T01:22:00.414Z,98.80
2017-11-15T01:24:28.645Z,98.70
2017-11-15T01:26:56.899Z,98.70
2017-11-15T01:29:25.148Z,98.70
2017-11-15T01:31:53.393Z,98.70
2017-11-15T01:34:21.629Z,98.90
2017-11-15T01:36:49.890Z,98.80
2017-11-15T01:39:18.138Z,98.70
2017-11-15T01:41:46.400Z,98.70
2017-11-15T01:44:14.634Z,98.70
2017-11-15T01:46:42.947Z,98.70
2017-11-15T01:49:11.192Z,98.60
2017-11-15T01:51:39.488Z,98.70
2017-11-15T01:54:07.710Z,98.70
2017-11-15T01:56:35.966Z,98.60
2017-11-15T01:59:04.210Z,98.50
2017-11-15T02:01:37.313Z,98.60
2017-11-15T02:04:06.317Z,98.50
2017-11-15T02:06:34.565Z,98.50
2017-11-15T02:09:03.581Z,98.50
2017-11-15T02:11:31.824Z,98.50
2017-11-15T02:14:00.089Z,98.70
2017-11-15T02:16:28.329Z,98.50
2017-11-15T02:18:56.587Z,98.50
2017-11-15T02:21:24.832Z,98.50
2017-11-15T02:23:53.106Z,98.30
2017-11-15T02:26:21.342Z,98.30
2017-11-15T02:28:49.853Z,98.30
2017-11-15T02:31:18.102Z,98.30
2017-11-15T02:33:46.359Z,98.30
2017-11-15T02:36:14.598Z,98.30
2017-11-15T02:38:43.621Z,98.60
2017-11-15T02:41:12.474Z,98.60
2017-11-15T02:43:40.754Z,98.60
2017-11-15T02:46:09.111Z,98.60
2017-11-15T02:48:37.382Z,98.70
2017-11-15T02:51:05.665Z,98.70
2017-11-15T02:53:33.938Z,98.70
2017-11-15T02:56:02.201Z,98.70
2017-11-15T02:58:30.512Z,98.80
2017-11-15T03:00:58.772Z,98.60
2017-11-15T03:03:27.053Z,98.80
2017-11-15T03:05:55.305Z,98.80
2017-11-15T03:08:24.344Z,98.70
2017-11-15T03:10:52.587Z,98.70
2017-11-15T03:13:21.698Z,98.60
2017-11-15T03:15:50.019Z,98.60
2017-11-15T03:18:18.269Z,98.60
2017-11-15T03:20:46.549Z,98.60
2017-11-15T03:23:14.806Z,98.70
2017-11-15T03:25:43.853Z,98.70
2017-11-15T03:28:12.121Z,98.70
2017-11-15T03:30:40.429Z,98.80
2017-11-15T03:33:08.721Z,98.80
2017-11-15T03:35:36.997Z,98.80
2017-11-15T03:38:05.256Z,98.80
2017-11-15T03:40:33.519Z,98.50
2017-11-15T03:43:01.781Z,98.60
2017-11-15T03:45:31.026Z,98.70
2017-11-15T03:47:59.284Z,98.70
2017-11-15T03:50:27.578Z,98.80
2017-11-15T03:52:55.932Z,99.00
2017-11-15T03:55:24.965Z,98.80
2017-11-15T03:57:53.256Z,98.80
2017-11-15T04:00:21.534Z,98.90
2017-11-15T04:02:49.803Z,98.70
2017-11-15T04:05:18.081Z,98.90
2017-11-15T04:07:46.424Z,98.90
2017-11-15T04:10:15.513Z,99.00
2017-11-15T04:12:43.793Z,99.00
2017-11-15T04:15:12.072Z,99.00
2017-11-15T04:17:40.343Z,99.00
2017-11-15T04:20:08.703Z,99.10
2017-11-15T04:22:37.812Z,99.10
2017-11-15T04:25:06.113Z,99.00
2017-11-15T04:27:34.378Z,99.00
2017-11-15T04:30:02.659Z,99.00
2017-11-15T04:32:30.936Z,99.10
2017-11-15T04:34:59.205Z,99.10
2017-11-15T04:37:27.496Z,99.10
2017-11-15T04:39:55.759Z,99.20
2017-11-15T04:42:24.043Z,99.30
2017-11-15T04:44:52.306Z,99.20
2017-11-15T04:47:21.338Z,99.20
2017-11-15T04:49:49.593Z,99.10
2017-11-15T04:52:17.876Z,99.20
2017-11-15T04:54:46.124Z,99.10
2017-11-15T04:57:15.347Z,99.10
2017-11-15T04:59:45.193Z,99.10
2017-11-15T05:02:13.485Z,99.10
2017-11-15T05:04:41.738Z,99.10
2017-11-15T05:07:10.055Z,99.00
2017-11-15T05:09:38.344Z,99.20
2017-11-15T05:12:06.608Z,99.20
2017-11-15T05:14:34.928Z,99.20
2017-11-15T05:17:03.204Z,99.10
2017-11-15T05:19:31.557Z,99.10
2017-11-15T05:21:59.828Z,99.20
2017-11-15T05:24:28.092Z,99.20
2017-11-15T05:26:56.409Z,99.20
2017-11-15T05:29:24.655Z,99.30
2017-11-15T05:31:52.948Z,99.20
2017-11-15T05:34:21.251Z,99.30
2017-11-15T05:36:49.561Z,99.30
2017-11-15T05:39:17.824Z,99.20
2017-11-15T05:41:46.085Z,99.20
2017-11-15T05:44:14.362Z,99.20
2017-11-15T05:46:42.617Z,99.20
2017-11-15T05:49:10.929Z,99.10
2017-11-15T05:51:39.387Z,99.20
2017-11-15T05:54:07.648Z,99.10
2017-11-15T05:56:36.693Z,99.20
2017-11-15T05:59:04.985Z,99.20
2017-11-15T06:01:33.243Z,99.20
2017-11-15T06:04:01.529Z,99.20
2017-11-15T06:06:29.835Z,99.20
2017-11-15T06:08:58.206Z,99.20
2017-11-15T06:11:26.486Z,99.00
2017-11-15T06:13:54.806Z,99.00
2017-11-15T06:16:23.086Z,99.00
2017-11-15T06:18:51.441Z,99.10
2017-11-15T06:21:19.797Z,99.10
2017-11-15T06:23:48.009Z,99.10
2017-11-15T06:26:16.384Z,99.10
2017-11-15T06:28:44.664Z,98.90
2017-11-15T06:31:12.905Z,98.90
2017-11-15T06:33:41.189Z,99.00
2017-11-15T06:36:09.381Z,99.00
2017-11-15T06:38:37.649Z,99.00
2017-11-15T06:41:05.904Z,99.00
2017-11-15T06:43:34.958Z,98.70
2017-11-15T06:46:03.220Z,98.70
2017-11-15T06:48:31.493Z,98.50
2017-11-15T06:50:59.800Z,98.60
2017-11-15T06:53:28.091Z,98.50
2017-11-15T06:55:56.366Z,98.50
2017-11-15T06:58:24.623Z,98.60
2017-11-15T07:00:52.927Z,98.60
2017-11-15T07:03:21.205Z,98.60
2017-11-15T07:05:49.484Z,98.60
2017-11-15T07:08:17.728Z,98.60
2017-11-15T07:10:46.766Z,98.70
2017-11-15T07:13:15.408Z,98.70
2017-11-15T07:15:43.860Z,98.70
2017-11-15T07:18:12.111Z,98.90
2017-11-15T07:20:40.383Z,98.50
2017-11-15T07:23:08.644Z,98.50
2017-11-15T07:25:37.784Z,98.50
2017-11-15T07:28:06.035Z,98.50
2017-11-15T07:30:34.352Z,98.60
2017-11-15T07:33:02.612Z,98.70
2017-11-15T07:35:30.912Z,98.70
2017-11-15T07:37:59.155Z,98.50
2017-11-15T07:40:28.200Z,98.30
2017-11-15T07:42:56.475Z,98.30
2017-11-15T07:45:24.746Z,98.20
2017-11-15T07:47:53.008Z,98.20
2017-11-15T07:50:22.144Z,97.90
2017-11-15T07:52:50.640Z,97.90
2017-11-15T07:55:19.016Z,97.80
2017-11-15T07:57:47.275Z,97.80
2017-11-15T08:00:15.966Z,97.80
2017-11-15T08:02:44.244Z,97.70
2017-11-15T08:05:12.553Z,97.60
2017-11-15T08:07:40.961Z,97.60
2017-11-15T08:10:09.208Z,97.60
2017-11-15T08:12:37.501Z,97.60
2017-11-15T08:15:05.752Z,97.60
2017-11-15T08:17:34.058Z,97.50
2017-11-15T08:20:02.317Z,97.60
2017-11-15T08:22:30.632Z,97.70
2017-11-15T08:24:58.892Z,97.70
2017-11-15T08:27:27.165Z,97.50
2017-11-15T08:29:55.468Z,97.50
2017-11-15T08:32:23.744Z,97.30
2017-11-15T08:34:52.006Z,97.40
2017-11-15T08:37:20.304Z,97.40
2017-11-15T08:39:48.567Z,97.50
2017-11-15T08:42:16.852Z,97.50
2017-11-15T08:44:45.187Z,97.50
2017-11-15T08:47:13.537Z,97.60
2017-11-15T08:49:41.796Z,98.00
2017-11-15T08:52:10.072Z,97.40
2017-11-15T08:54:38.320Z,97.30
2017-11-15T08:57:06.659Z,97.20
2017-11-15T08:59:34.909Z,97.30
2017-11-15T09:02:03.175Z,97.30
2017-11-15T09:04:32.204Z,96.60
2017-11-15T09:07:00.502Z,96.60
2017-11-15T09:09:28.771Z,96.40
2017-11-15T09:11:57.031Z,96.00
2017-11-15T09:14:25.303Z,95.90
2017-11-15T09:16:54.329Z,95.10
2017-11-15T09:19:22.642Z,95.00
2017-11-15T09:21:50.888Z,95.30
2017-11-15T09:24:19.195Z,95.10
2017-11-15T09:26:47.483Z,95.00
2017-11-15T09:29:15.754Z,95.00
2017-11-15T09:31:44.009Z,94.80
2017-11-15T09:34:12.288Z,94.60
2017-11-15T09:36:40.548Z,94.40
2017-11-15T09:39:09.652Z,94.90
2017-11-15T09:41:38.669Z,94.70
2017-11-15T09:44:06.942Z,94.70
2017-11-15T09:46:35.252Z,94.30
2017-11-15T09:49:03.525Z,93.90
2017-11-15T09:51:31.788Z,93.60
2017-11-15T09:54:00.061Z,93.50
2017-11-15T09:56:29.089Z,93.40
2017-11-15T09:58:57.386Z,93.40
2017-11-15T10:01:25.632Z,93.40
2017-11-15T10:03:53.903Z,93.30
2017-11-15T10:06:22.942Z,93.00
2017-11-15T10:08:51.228Z,93.00
2017-11-15T10:11:19.489Z,93.20
2017-11-15T10:13:47.788Z,93.40
2017-11-15T10:16:16.040Z,93.20
2017-11-15T10:18:44.297Z,93.20
2017-11-15T10:21:13.342Z,93.20
2017-11-15T10:23:41.627Z,93.20
2017-11-15T10:26:09.896Z,93.10
2017-11-15T10:28:38.196Z,92.90
2017-11-15T10:31:06.468Z,92.70
2017-11-15T10:33:34.717Z,93.10
2017-11-15T10:36:02.989Z,93.00
2017-11-15T10:38:32.030Z,93.10
2017-11-15T10:41:00.305Z,93.10
2017-11-15T10:43:28.555Z,93.10
2017-11-15T10:45:57.587Z,92.60
2017-11-15T10:48:25.845Z,92.60
2017-11-15T10:50:54.117Z,92.40
2017-11-15T10:53:23.156Z,91.90
2017-11-15T10:55:51.436Z,91.90
2017-11-15T10:58:19.720Z,91.80
2017-11-15T11:00:47.997Z,91.40
2017-11-15T11:03:16.260Z,91.00
2017-11-15T11:05:44.541Z,91.00
2017-11-15T11:08:13.555Z,91.50
2017-11-15T11:10:41.831Z,91.50
2017-11-15T11:13:10.080Z,91.40
2017-11-15T11:15:39.125Z,91.30
2017-11-15T11:18:07.385Z,91.30
2017-11-15T11:20:35.677Z,91.30
2017-11-15T11:23:03.927Z,91.10
2017-11-15T11:25:32.971Z,91.20
2017-11-15T11:28:01.219Z,91.20
2017-11-15T11:30:29.532Z,91.10
2017-11-15T11:32:57.809Z,90.90
2017-11-15T11:35:26.091Z,91.00
2017-11-15T11:37:55.196Z,90.80
2017-11-15T11:40:23.450Z,90.90
2017-11-15T11:42:51.769Z,90.50
2017-11-15T11:45:20.009Z,90.20
2017-11-15T11:47:48.292Z,89.70
2017-11-15T11:50:16.595Z,88.90
2017-11-15T11:52:44.896Z,88.90
2017-11-15T11:55:13.153Z,88.70
2017-11-15T11:57:41.440Z,88.50
2017-11-15T12:00:09.723Z,86.60
2017-11-15T12:02:39.046Z,88.00
2017-11-15T12:05:07.312Z,88.30
2017-11-15T12:07:35.597Z,86.70
2017-11-15T12:10:04.796Z,87.20
2017-11-15T12:12:33.177Z,86.30
2017-11-15T12:15:01.447Z,85.30
2017-11-15T12:17:29.746Z,85.30
2017-11-15T12:19:58.013Z,86.10
2017-11-15T12:22:26.313Z,85.80
2017-11-15T12:24:57.748Z,85.30
2017-11-15T12:27:26.152Z,84.60
2017-11-15T12:29:54.529Z,83.70
2017-11-15T12:32:22.809Z,83.40
2017-11-15T12:34:51.094Z,82.70
2017-11-15T12:37:19.472Z,82.50
2017-11-15T12:39:47.733Z,81.80
2017-11-15T12:42:16.137Z,81.20
2017-11-15T12:44:44.431Z,81.20
2017-11-15T12:47:13.397Z,80.40
2017-11-15T12:49:41.688Z,80.70
2017-11-15T12:52:09.935Z,79.70
2017-11-15T12:54:38.227Z,78.90
2017-11-15T12:57:07.253Z,77.60
2017-11-15T12:59:35.526Z,77.60
2017-11-15T13:02:03.783Z,77.50
2017-11-15T13:04:32.096Z,77.60
2017-11-15T13:07:00.358Z,77.50
2017-11-15T13:09:28.680Z,77.40
2017-11-15T13:11:56.940Z,77.60
2017-11-15T13:14:25.219Z,77.60
2017-11-15T13:16:53.497Z,77.70
2017-11-15T13:19:21.901Z,77.70
2017-11-15T13:21:50.149Z,78.10
2017-11-15T13:24:18.425Z,77.70
2017-11-15T13:26:46.686Z,77.10
2017-11-15T13:29:15.725Z,77.60
2017-11-15T13:31:44.972Z,77.60
2017-11-15T13:34:13.311Z,78.20
2017-11-15T13:36:41.578Z,77.40
2017-11-15T13:39:09.861Z,77.80
2017-11-15T13:41:38.124Z,77.80
2017-11-15T13:44:06.442Z,78.30
2017-11-15T13:46:34.729Z,78.60
2017-11-15T13:49:03.011Z,78.10
2017-11-15T13:51:31.271Z,78.20
2017-11-15T13:53:59.555Z,78.70
2017-11-15T13:56:29.373Z,79.40
2017-11-15T13:58:57.672Z,79.40
2017-11-15T14:01:25.942Z,79.40
2017-11-15T14:03:54.202Z,80.00
2017-11-15T14:06:22.505Z,80.00
2017-11-15T14:08:50.786Z,80.40
2017-11-15T14:11:19.069Z,81.20
2017-11-15T14:13:47.320Z,81.00
2017-11-15T14:16:15.636Z,80.90
2017-11-15T14:18:43.904Z,81.00
2017-11-15T14:21:12.193Z,80.20
2017-11-15T14:23:40.489Z,80.50
2017-11-15T14:26:08.857Z,81.00
2017-11-15T14:28:37.121Z,81.60
2017-11-15T14:31:05.395Z,81.30
2017-11-15T14:33:33.672Z,81.30
2017-11-15T14:36:01.981Z,81.50
2017-11-15T14:38:30.255Z,81.20
2017-11-15T14:40:58.532Z,81.30
2017-11-15T14:43:26.795Z,81.40
2017-11-15T14:45:55.081Z,81.40
2017-11-15T14:48:23.389Z,81.60
2017-11-15T14:50:51.659Z,82.40
2017-11-15T14:53:19.947Z,82.60
2017-11-15T14:55:48.221Z,83.10
2017-11-15T14:58:16.520Z,83.30
2017-11-15T15:00:44.796Z,83.40
2017-11-15T15:03:13.080Z,84.10
2017-11-15T15:05:41.362Z,83.80
2017-11-15T15:08:09.627Z,83.90
2017-11-15T15:10:37.932Z,83.90
2017-11-15T15:13:06.200Z,84.80
2017-11-15T15:15:34.485Z,85.10
2017-11-15T15:18:02.786Z,85.50
2017-11-15T15:20:31.052Z,85.80
2017-11-15T15:22:59.323Z,86.00
2017-11-15T15:25:27.577Z,86.00
2017-11-15T15:27:55.856Z,86.10
2017-11-15T15:30:25.006Z,86.40
2017-11-15T15:32:53.293Z,86.50
2017-11-15T15:35:21.534Z,86.80
2017-11-15T15:37:49.803Z,86.90
2017-11-15T15:40:18.219Z,87.00
2017-11-15T15:42:46.520Z,87.40
2017-11-15T15:45:14.765Z,87.80
2017-11-15T15:47:43.037Z,88.30
2017-11-15T15:50:11.285Z,89.00
2017-11-15T15:52:39.684Z,89.20
2017-11-15T15:55:08.700Z,90.20
2017-11-15T15:57:36.975Z,90.20
2017-11-15T16:00:05.226Z,90.40
2017-11-15T16:02:34.263Z,90.90
2017-11-15T16:05:02.562Z,90.90
2017-11-15T16:07:30.838Z,91.00
2017-11-15T16:09:59.084Z,91.20
2017-11-15T16:12:28.224Z,91.30
2017-11-15T16:14:56.482Z,91.30
2017-11-15T16:17:24.750Z,91.40
2017-11-15T16:19:53.019Z,91.60
2017-11-15T16:22:22.163Z,91.60
2017-11-15T16:24:50.445Z,91.60
2017-11-15T16:27:18.703Z,91.60
2017-11-15T16:29:46.963Z,91.70
2017-11-15T16:32:16.784Z,91.70
2017-11-15T16:34:45.068Z,91.70
2017-11-15T16:37:14.090Z,91.70
2017-11-15T16:39:42.396Z,91.60
2017-11-15T16:42:10.702Z,91.70
2017-11-15T16:44:38.952Z,91.70
2017-11-15T16:47:07.297Z,91.80
2017-11-15T16:49:36.336Z,91.90
2017-11-15T16:52:05.160Z,91.90
2017-11-15T16:54:33.409Z,91.80
2017-11-15T16:57:01.671Z,91.90
2017-11-15T16:59:30.876Z,92.10
2017-11-15T17:01:59.661Z,92.20
2017-11-15T17:04:27.944Z,92.30
2017-11-15T17:06:56.255Z,92.40
2017-11-15T17:09:24.537Z,92.50
2017-11-15T17:11:52.788Z,92.50
2017-11-15T17:14:21.090Z,92.60
2017-11-15T17:16:49.423Z,92.60
2017-11-15T17:19:17.767Z,92.70
2017-11-15T17:21:46.021Z,92.80
2017-11-15T17:24:14.306Z,92.90
2017-11-15T17:26:42.569Z,92.80
2017-11-15T17:29:11.592Z,92.90
2017-11-15T17:31:39.844Z,93.00
2017-11-15T17:34:08.876Z,93.00
2017-11-15T17:36:37.141Z,93.00
2017-11-15T17:39:05.451Z,93.10
2017-11-15T17:41:33.721Z,93.20
2017-11-15T17:44:02.013Z,93.30
2017-11-15T17:46:30.396Z,93.40
2017-11-15T17:48:58.869Z,93.40
2017-11-15T17:51:27.159Z,93.50
2017-11-15T17:53:55.411Z,93.50
2017-11-15T17:56:23.722Z,93.50
2017-11-15T17:58:51.975Z,93.60
2017-11-15T18:01:20.238Z,93.70
2017-11-15T18:03:48.483Z,93.70
2017-11-15T18:06:16.848Z,93.70
2017-11-15T18:08:45.104Z,93.80
2017-11-15T18:11:13.401Z,93.80
2017-11-15T18:13:41.653Z,93.80
2017-11-15T18:16:10.689Z,93.80
2017-11-15T18:18:38.940Z,93.80
2017-11-15T18:21:07.218Z,93.80
2017-11-15T18:23:36.255Z,93.70
2017-11-15T18:26:04.520Z,93.70
2017-11-15T18:28:32.816Z,93.70
2017-11-15T18:31:01.107Z,93.70
2017-11-15T18:33:29.349Z,93.80
2017-11-15T18:35:57.624Z,93.70
2017-11-15T18:38:25.937Z,93.70
2017-11-15T18:40:54.229Z,93.70
2017-11-15T18:43:22.484Z,93.60
2017-11-15T18:45:50.737Z,93.70
2017-11-15T18:48:19.772Z,93.80
2017-11-15T18:50:48.024Z,93.50
2017-11-15T18:53:17.878Z,93.40
2017-11-15T18:55:46.140Z,93.40
2017-11-15T18:58:14.454Z,93.50
2017-11-15T19:00:42.724Z,93.50
2017-11-15T19:03:11.002Z,93.40
2017-11-15T19:05:39.266Z,93.30
2017-11-15T19:08:07.529Z,93.30
2017-11-15T19:10:36.563Z,93.40
2017-11-15T19:13:04.849Z,93.40
2017-11-15T19:15:33.112Z,93.30
2017-11-15T19:18:01.426Z,93.30
2017-11-15T19:20:29.695Z,93.30
2017-11-15T19:22:57.974Z,93.30
2017-11-15T19:25:26.257Z,93.30
2017-11-15T19:27:54.544Z,93.30
2017-11-15T19:30:22.805Z,93.20
2017-11-15T19:32:51.078Z,93.20
2017-11-15T19:35:19.329Z,93.20
2017-11-15T19:37:48.367Z,93.50
2017-11-15T19:40:16.629Z,93.20
2017-11-15T19:42:45.682Z,92.90
2017-11-15T19:45:13.952Z,92.90
2017-11-15T19:47:42.227Z,93.20
2017-11-15T19:50:10.508Z,92.90
2017-11-15T19:52:38.760Z,92.40
2017-11-15T19:55:07.742Z,92.10
2017-11-15T19:57:36.764Z,91.60
2017-11-15T20:00:05.030Z,91.60
2017-11-15T20:02:33.276Z,91.70
2017-11-15T20:05:01.654Z,91.90
2017-11-15T20:07:29.887Z,91.60
2017-11-15T20:09:58.152Z,91.40
2017-11-15T20:12:26.465Z,91.30
2017-11-15T20:14:54.743Z,91.40
2017-11-15T20:17:23.345Z,91.50
2017-11-15T20:19:51.612Z,91.40
2017-11-15T20:22:19.857Z,91.40
2017-11-15T20:24:48.904Z,91.90
2017-11-15T20:27:17.175Z,92.10
2017-11-15T20:29:45.468Z,91.90
2017-11-15T20:32:13.716Z,92.10
2017-11-15T20:34:41.970Z,92.20
2017-11-15T20:37:10.985Z,92.50
2017-11-15T20:39:40.122Z,92.70
2017-11-15T20:42:08.404Z,92.70
2017-11-15T20:44:36.669Z,92.60
2017-11-15T20:47:04.917Z,92.60
2017-11-15T20:49:33.961Z,92.70
2017-11-15T20:52:02.231Z,92.70
2017-11-15T20:54:30.492Z,92.60
2017-11-15T20:56:58.745Z,92.60
2017-11-15T20:59:27.084Z,92.60
2017-11-15T21:01:55.334Z,92.50
2017-11-15T21:04:23.845Z,92.30
2017-11-15T21:06:52.900Z,92.20
2017-11-15T21:09:21.910Z,92.30
2017-11-15T21:11:50.178Z,92.40
2017-11-15T21:14:19.252Z,92.40
2017-11-15T21:16:47.515Z,92.40
2017-11-15T21:19:15.761Z,92.30
2017-11-15T21:21:44.012Z,92.50
2017-11-15T21:24:12.262Z,92.60
2017-11-15T21:26:40.529Z,92.80
2017-11-15T21:29:08.768Z,92.90
2017-11-15T21:31:37.800Z,93.00
2017-11-15T21:34:06.077Z,93.00
2017-11-15T21:36:34.379Z,92.90
2017-11-15T21:39:02.644Z,92.90
2017-11-15T21:41:30.927Z,92.80
2017-11-15T21:43:59.198Z,92.80
2017-11-15T21:46:27.524Z,92.90
2017-11-15T21:48:55.773Z,93.10
2017-11-15T21:51:24.035Z,93.00
2017-11-15T21:53:52.291Z,93.10
2017-11-15T21:56:21.328Z,93.10
2017-11-15T21:58:49.575Z,93.20
2017-11-15T22:01:18.612Z,93.20
2017-11-15T22:03:46.907Z,93.30
2017-11-15T22:06:15.180Z,93.30
2017-11-15T22:08:43.429Z,93.40
2017-11-15T22:11:11.697Z,93.40
2017-11-15T22:13:40.703Z,93.60
2017-11-15T22:16:09.038Z,93.60
2017-11-15T22:18:37.279Z,93.60
2017-11-15T22:21:05.537Z,93.50
2017-11-15T22:23:34.581Z,93.50
2017-11-15T22:26:02.821Z,93.50
2017-11-15T22:28:31.965Z,93.70
2017-11-15T22:31:00.254Z,93.70
2017-11-15T22:33:28.503Z,93.80
2017-11-15T22:35:56.753Z,93.90
2017-11-15T22:38:25.016Z,94.00
2017-11-15T22:40:53.260Z,93.90
2017-11-15T22:43:21.510Z,93.90
2017-11-15T22:45:50.515Z,93.80
2017-11-15T22:48:18.828Z,93.80
2017-11-15T22:50:47.073Z,93.80
2017-11-15T22:53:15.350Z,93.80
2017-11-15T22:55:44.363Z,93.70
2017-11-15T22:58:12.617Z,93.80
2017-11-15T23:00:41.475Z,93.70
2017-11-15T23:03:09.746Z,93.60
2017-11-15T23:05:37.998Z,93.60
2017-11-15T23:08:06.310Z,93.60
2017-11-15T23:10:34.569Z,93.60
2017-11-15T23:13:02.827Z,93.60
2017-11-15T23:15:31.869Z,93.80
2017-11-15T23:18:00.157Z,93.80
2017-11-15T23:20:28.432Z,93.80
2017-11-15T23:22:56.729Z,93.80
2017-11-15T23:25:24.976Z,93.80
2017-11-15T23:27:53.255Z,93.90
2017-11-15T23:30:21.513Z,93.90
2017-11-15T23:32:50.520Z,94.10
2017-11-15T23:35:18.827Z,94.10
2017-11-15T23:37:47.080Z,94.10
2017-11-15T23:40:15.350Z,94.40
2017-11-15T23:42:44.395Z,94.70
2017-11-15T23:45:12.655Z,94.70
2017-11-15T23:47:40.904Z,94.70
2017-11-15T23:50:09.957Z,94.70
2017-11-15T23:52:38.201Z,94.70
2017-11-15T23:55:06.476Z,94.80
2017-11-15T23:57:35.495Z,95.00
